Time;durP1;ratioP1;P1;durP2;ratioP2;P2;SDS_P1;SDS_P2;PMS_P1;PMS_P2;Temp;Humidity;BMP_temperature;BMP_pressure;BME280_temperature;BME280_humidity;BME280_pressure;Samples;Min_cycle;Max_cycle;Signal;HPM_P1;HPM_P2
2021/09/05 00:01:17;;;;;;;6.28;3.28;;;;;;;13.11;57.02;98940.75;4932218;29;20012;-69
2021/09/05 00:03:43;;;;;;;7.25;3.30;;;;;;;13.12;56.84;98939.66;4932088;29;20030;-70
2021/09/05 00:06:09;;;;;;;6.10;3.22;;;;;;;13.08;57.13;98935.84;4946891;29;20031;-70
2021/09/05 00:08:34;;;;;;;9.07;3.17;;;;;;;13.02;57.05;98937.88;4931780;29;20019;-70
2021/09/05 00:11:00;;;;;;;8.75;3.78;;;;;;;12.96;56.95;98947.34;4945930;29;20071;-70
2021/09/05 00:13:26;;;;;;;7.25;3.38;;;;;;;12.98;57.21;98944.31;4931662;29;20033;-70
2021/09/05 00:15:51;;;;;;;7.13;3.03;;;;;;;12.99;57.24;98940.44;4935464;29;20067;-70
2021/09/05 00:18:17;;;;;;;6.18;2.80;;;;;;;12.95;57.13;98943.78;4935637;29;20027;-70
2021/09/05 00:20:43;;;;;;;5.57;2.88;;;;;;;12.95;56.78;98948.47;4935480;29;20063;-70
2021/09/05 00:23:09;;;;;;;5.93;3.17;;;;;;;12.89;57.25;98946.91;4935495;29;20024;-69
2021/09/05 00:25:35;;;;;;;7.47;3.15;;;;;;;12.89;57.60;98939.47;4934954;29;20472;-69
2021/09/05 00:28:00;;;;;;;9.32;3.50;;;;;;;12.89;57.17;98944.97;4935110;29;20075;-70
2021/09/05 00:30:27;;;;;;;8.23;3.60;;;;;;;12.89;57.31;98941.41;4934933;29;20028;-70
2021/09/05 00:32:52;;;;;;;5.80;3.08;;;;;;;12.89;57.19;98949.66;4937255;29;20067;-70
2021/09/05 00:35:17;;;;;;;7.75;3.20;;;;;;;12.90;57.58;98943.88;4935611;29;20079;-69
2021/09/05 00:37:43;;;;;;;8.25;3.28;;;;;;;12.87;57.46;98951.88;4935366;29;20034;-70
2021/09/05 00:40:09;;;;;;;7.20;3.50;;;;;;;12.85;57.48;98948.63;4949983;29;20423;-70
2021/09/05 00:42:35;;;;;;;6.45;2.97;;;;;;;12.86;57.12;98961.25;4935061;29;20023;-70
2021/09/05 00:45:02;;;;;;;7.93;3.40;;;;;;;12.82;57.45;98963.81;4934437;29;20090;-70
2021/09/05 00:47:27;;;;;;;9.07;3.92;;;;;;;12.73;57.27;98963.66;4934799;29;20559;-71
2021/09/05 00:49:53;;;;;;;8.55;3.92;;;;;;;12.71;57.38;98952.16;4935033;29;20036;-70
2021/09/05 00:52:18;;;;;;;6.70;3.90;;;;;;;12.68;57.88;98965.66;4934995;29;20046;-71
2021/09/05 00:54:45;;;;;;;9.95;4.60;;;;;;;12.59;57.28;98954.50;4934466;29;20525;-69
2021/09/05 00:57:11;;;;;;;9.55;4.57;;;;;;;12.44;57.51;98955.56;4934904;29;20093;-70
2021/09/05 00:59:42;;;;;;;9.23;4.60;;;;;;;12.35;57.84;98953.47;4949555;28;20042;-71
2021/09/05 01:02:08;;;;;;;8.55;4.50;;;;;;;12.30;57.86;98952.72;4935205;29;20032;-71
2021/09/05 01:04:34;;;;;;;12.02;4.68;;;;;;;12.30;57.97;98953.53;4933590;29;20050;-71
2021/09/05 01:07:00;;;;;;;9.27;4.47;;;;;;;12.34;58.05;98953.78;4934810;29;20024;-72
2021/09/05 01:09:27;;;;;;;9.63;4.60;;;;;;;12.26;58.64;98954.44;4949250;29;20096;-71
2021/09/05 01:11:52;;;;;;;8.23;4.45;;;;;;;12.18;58.01;98955.91;4934444;29;20443;-71
2021/09/05 01:14:18;;;;;;;8.95;4.53;;;;;;;12.10;58.48;98951.84;4934289;29;20051;-71
2021/09/05 01:16:44;;;;;;;9.38;4.78;;;;;;;12.09;58.00;98952.16;4935871;29;20023;-71
2021/09/05 01:19:17;;;;;;;10.50;5.85;;;;;;;12.06;58.07;98957.13;4934612;29;20030;-71
2021/09/05 01:21:45;;;;;;;12.93;6.25;;;;;;;11.95;58.33;98952.03;4932290;29;20106;-71
2021/09/05 01:24:11;;;;;;;8.88;5.10;;;;;;;11.92;58.85;98956.16;4934247;29;20032;-71
2021/09/05 01:26:41;;;;;;;8.77;5.00;;;;;;;11.95;59.14;98965.78;4933728;29;20307;-72
2021/09/05 01:29:07;;;;;;;9.82;5.28;;;;;;;11.95;58.93;98963.03;4933816;29;20071;-71
2021/09/05 01:31:41;;;;;;;8.25;4.20;;;;;;;11.90;58.83;98963.88;4933903;29;20027;-71
2021/09/05 01:34:08;;;;;;;11.07;4.93;;;;;;;11.84;58.91;98960.41;4934016;29;20028;-71
2021/09/05 01:36:35;;;;;;;9.50;5.45;;;;;;;11.85;58.85;98955.69;4932749;29;20031;-71
2021/09/05 01:39:01;;;;;;;8.73;5.25;;;;;;;11.84;59.15;98962.31;4932574;29;20028;-71
2021/09/05 01:41:26;;;;;;;8.60;4.75;;;;;;;11.80;58.86;98958.53;4933777;29;20097;-71
2021/09/05 01:43:59;;;;;;;8.07;4.47;;;;;;;11.77;59.03;98968.16;4933242;29;20066;-71
2021/09/05 01:46:25;;;;;;;7.20;4.50;;;;;;;11.79;59.04;98971.44;4935836;29;20023;-71
2021/09/05 01:48:50;;;;;;;6.38;3.95;;;;;;;11.81;59.04;98976.66;4933829;29;20038;-71
2021/09/05 01:51:16;;;;;;;6.13;3.42;;;;;;;11.75;59.16;98973.97;4933582;29;20019;-71
2021/09/05 01:53:41;;;;;;;7.75;4.22;;;;;;;11.73;59.17;98989.91;4933288;29;20055;-72
2021/09/05 01:56:06;;;;;;;5.53;3.13;;;;;;;11.68;59.67;98986.38;4933768;29;20027;-71
2021/09/05 01:58:32;;;;;;;8.07;3.40;;;;;;;11.64;59.25;98985.34;4933554;29;20067;-71
2021/09/05 02:00:57;;;;;;;6.10;3.10;;;;;;;11.61;59.25;98992.22;4933709;29;20483;-71
2021/09/05 02:03:23;;;;;;;5.53;2.80;;;;;;;11.59;59.39;98989.78;4934263;29;20380;-71
2021/09/05 02:05:48;;;;;;;6.32;3.17;;;;;;;11.52;59.35;98982.97;4933976;29;20027;-71
2021/09/05 02:08:13;;;;;;;7.00;3.03;;;;;;;11.46;59.42;98985.78;4948535;29;20020;-72
2021/09/05 02:10:39;;;;;;;5.68;3.17;;;;;;;11.43;59.00;98982.78;4927527;29;20488;-72
2021/09/05 02:13:04;;;;;;;6.03;3.08;;;;;;;11.39;59.94;98984.47;4932371;29;20473;-72
2021/09/05 02:15:29;;;;;;;7.15;3.22;;;;;;;11.30;59.58;98985.09;4933097;29;20019;-71
2021/09/05 02:17:55;;;;;;;5.47;3.15;;;;;;;11.26;59.42;98986.78;4933607;29;20102;-71
2021/09/05 02:20:20;;;;;;;7.57;3.55;;;;;;;11.30;59.79;98993.34;4933815;29;20135;-71
2021/09/05 02:22:46;;;;;;;5.47;2.97;;;;;;;11.31;60.17;98991.41;4933288;29;20062;-71
2021/09/05 02:25:11;;;;;;;6.80;3.10;;;;;;;11.20;59.81;98989.88;4935146;28;20063;-71
2021/09/05 02:27:37;;;;;;;7.50;3.30;;;;;;;11.14;59.92;98984.41;4933080;29;20040;-71
2021/09/05 02:30:03;;;;;;;7.05;3.40;;;;;;;11.20;60.39;98981.63;4933164;29;20043;-71
2021/09/05 02:32:29;;;;;;;5.93;3.33;;;;;;;11.16;60.05;98984.13;4932849;29;20544;-71
2021/09/05 02:34:54;;;;;;;7.20;3.63;;;;;;;11.07;60.33;98985.84;4932624;29;20024;-71
2021/09/05 02:37:19;;;;;;;8.05;3.97;;;;;;;11.04;60.19;98987.22;4932615;29;20043;-71
2021/09/05 02:39:45;;;;;;;6.25;3.55;;;;;;;11.06;60.36;98986.97;4932811;29;20111;-71
2021/09/05 02:42:10;;;;;;;5.95;3.50;;;;;;;11.01;60.21;98993.28;4933006;28;20083;-71
2021/09/05 02:44:36;;;;;;;5.68;3.10;;;;;;;10.98;59.90;98991.94;4932425;29;20384;-71
2021/09/05 02:47:02;;;;;;;7.38;3.75;;;;;;;10.89;60.58;98993.66;4933115;29;20051;-71
2021/09/05 02:49:27;;;;;;;6.80;3.70;;;;;;;10.84;61.21;98993.69;4933757;29;20023;-71
2021/09/05 02:51:53;;;;;;;8.60;4.00;;;;;;;10.82;60.73;98996.72;4933573;29;20668;-71
2021/09/05 02:54:18;;;;;;;8.60;3.97;;;;;;;10.87;60.90;98998.59;4933189;29;20115;-71
2021/09/05 02:56:43;;;;;;;8.82;4.75;;;;;;;10.83;60.63;99001.13;4933169;29;20055;-71
2021/09/05 02:59:09;;;;;;;6.13;4.30;;;;;;;10.83;61.08;99012.09;4933048;29;20070;-72
2021/09/05 03:01:34;;;;;;;6.13;3.38;;;;;;;10.82;60.96;99009.63;4932735;29;20035;-72
2021/09/05 03:03:59;;;;;;;6.10;3.72;;;;;;;10.80;60.32;99015.41;4932001;29;20041;-71
2021/09/05 03:06:25;;;;;;;6.25;3.80;;;;;;;10.80;60.65;99009.91;4933213;29;20050;-71
2021/09/05 03:08:50;;;;;;;6.80;3.38;;;;;;;10.77;61.02;99013.22;4932533;29;20472;-72
2021/09/05 03:11:15;;;;;;;5.78;2.95;;;;;;;10.73;61.08;99020.38;4932903;29;20035;-71
2021/09/05 03:13:45;;;;;;;7.03;3.42;;;;;;;10.72;61.39;99014.09;4932348;29;20086;-72
2021/09/05 03:16:10;;;;;;;5.65;3.17;;;;;;;10.71;60.85;99009.69;4932859;29;20034;-72
2021/09/05 03:18:35;;;;;;;6.70;3.10;;;;;;;10.68;61.06;99017.66;4932512;29;20488;-71
2021/09/05 03:21:01;;;;;;;4.38;2.72;;;;;;;10.66;60.83;99014.38;4932024;29;20098;-71
2021/09/05 03:23:26;;;;;;;5.60;2.88;;;;;;;10.67;61.24;99021.50;4932539;29;20032;-71
2021/09/05 03:25:51;;;;;;;6.60;3.38;;;;;;;10.66;61.03;99017.94;4932390;29;20032;-71
2021/09/05 03:28:17;;;;;;;6.13;3.25;;;;;;;10.68;61.15;99021.22;4931716;29;20047;-72
2021/09/05 03:30:42;;;;;;;6.63;3.30;;;;;;;10.66;61.30;99028.94;4932575;29;20123;-71
2021/09/05 03:33:07;;;;;;;7.85;3.33;;;;;;;10.63;61.21;99024.00;4932334;29;20385;-72
2021/09/05 03:35:33;;;;;;;7.28;3.70;;;;;;;10.62;61.46;99029.75;4931609;29;20164;-71
2021/09/05 03:37:58;;;;;;;7.38;3.65;;;;;;;10.65;61.59;99032.78;4932153;29;20095;-72
2021/09/05 03:40:24;;;;;;;6.50;3.38;;;;;;;10.66;61.53;99026.19;4932165;29;20032;-72
2021/09/05 03:42:49;;;;;;;6.03;3.28;;;;;;;10.64;61.22;99025.66;4932145;29;20047;-72
2021/09/05 03:45:15;;;;;;;5.90;3.10;;;;;;;10.62;60.97;99029.75;4931655;29;20060;-71
2021/09/05 03:47:40;;;;;;;6.22;3.17;;;;;;;10.65;61.95;99035.50;4932592;29;20031;-71
2021/09/05 03:50:06;;;;;;;5.18;3.25;;;;;;;10.68;61.37;99026.72;4933916;29;20027;-72
2021/09/05 03:52:33;;;;;;;5.93;3.10;;;;;;;10.68;61.62;99026.72;4936271;29;20157;-71
2021/09/05 03:54:58;;;;;;;5.00;3.33;;;;;;;10.63;61.42;99026.75;4950148;29;20683;-72
2021/09/05 03:57:24;;;;;;;8.57;3.90;;;;;;;10.64;62.06;99022.91;4935510;29;20050;-72
2021/09/05 03:59:49;;;;;;;5.88;3.70;;;;;;;10.67;61.61;99033.31;4935801;29;20082;-71
2021/09/05 04:02:14;;;;;;;10.13;3.67;;;;;;;10.67;61.64;99037.97;4935842;29;20032;-71
2021/09/05 04:04:40;;;;;;;7.95;3.75;;;;;;;10.64;61.61;99042.09;4934999;29;20036;-71
2021/09/05 04:07:06;;;;;;;7.00;4.18;;;;;;;10.61;61.59;99039.91;4935727;29;20515;-71
2021/09/05 04:12:17;;;;;;;9.63;4.30;;;;;;;10.51;60.63;99040.81;4935343;29;20038;-72
2021/09/05 04:14:43;;;;;;;11.50;4.88;;;;;;;10.47;61.50;99039.72;4934364;29;20039;-72
2021/09/05 04:17:08;;;;;;;8.20;4.25;;;;;;;10.47;61.59;99053.44;4935428;29;20036;-70
2021/09/05 04:19:34;;;;;;;7.03;4.18;;;;;;;10.49;61.64;99055.88;4938387;29;20091;-71
2021/09/05 04:22:01;;;;;;;6.65;4.22;;;;;;;10.42;61.35;99057.00;4935348;29;20032;-72
2021/09/05 04:24:26;;;;;;;8.68;4.53;;;;;;;10.38;61.71;99063.31;4935349;29;20032;-72
2021/09/05 04:26:51;;;;;;;9.25;4.68;;;;;;;10.38;61.26;99066.88;4935996;29;20024;-72
2021/09/05 04:29:17;;;;;;;9.35;4.72;;;;;;;10.38;61.40;99077.84;4935160;29;20028;-72
2021/09/05 04:31:44;;;;;;;11.95;4.90;;;;;;;10.37;61.07;99073.47;4934803;29;20046;-71
2021/09/05 04:34:09;;;;;;;11.77;6.03;;;;;;;10.36;61.89;99074.56;4935242;29;20090;-72
2021/09/05 04:36:34;;;;;;;13.35;6.57;;;;;;;10.37;62.12;99078.94;4935905;29;20028;-71
2021/09/05 04:39:00;;;;;;;18.85;8.10;;;;;;;10.37;61.60;99080.84;4935214;29;20567;-71
2021/09/05 04:41:26;;;;;;;18.52;7.88;;;;;;;10.38;61.96;99080.59;4935193;29;20027;-71
2021/09/05 04:43:52;;;;;;;16.67;7.63;;;;;;;10.40;61.72;99085.81;4934839;29;20028;-72
2021/09/05 04:46:17;;;;;;;12.85;5.70;;;;;;;10.41;62.61;99088.25;4934877;29;20036;-72
2021/09/05 04:48:42;;;;;;;12.88;5.60;;;;;;;10.46;62.51;99084.69;4934864;29;20034;-71
2021/09/05 04:51:08;;;;;;;9.80;4.40;;;;;;;10.50;62.08;99088.53;4934827;29;20035;-71
2021/09/05 04:53:33;;;;;;;10.32;4.88;;;;;;;10.57;62.22;99089.06;4935331;29;20031;-72
2021/09/05 04:55:59;;;;;;;9.15;4.38;;;;;;;10.64;62.23;99091.47;4934776;29;20090;-72
2021/09/05 04:58:25;;;;;;;7.85;4.15;;;;;;;10.72;62.23;99090.91;4934857;29;20030;-71
2021/09/05 05:00:50;;;;;;;7.97;3.70;;;;;;;10.82;63.08;99089.19;4949029;28;20395;-72
2021/09/05 05:03:17;;;;;;;8.25;3.72;;;;;;;10.84;62.00;99095.22;4934649;29;20071;-72
2021/09/05 05:05:42;;;;;;;6.25;3.60;;;;;;;10.87;62.21;99094.66;4935499;29;20035;-72
2021/09/05 05:08:07;;;;;;;6.25;3.50;;;;;;;10.92;62.66;99108.34;4935637;29;20100;-72
2021/09/05 05:10:33;;;;;;;8.43;3.90;;;;;;;11.00;62.45;99104.22;4935308;29;20035;-72
2021/09/05 05:12:59;;;;;;;5.38;3.10;;;;;;;11.06;62.34;99105.00;4935280;29;20031;-72
2021/09/05 05:15:24;;;;;;;6.10;2.97;;;;;;;11.14;62.70;99102.47;4934342;29;20035;-72
2021/09/05 05:17:49;;;;;;;7.35;3.67;;;;;;;11.18;62.64;99108.22;4935414;29;20024;-72
2021/09/05 05:20:15;;;;;;;6.82;3.70;;;;;;;11.20;62.68;99108.75;4938899;29;20536;-72
2021/09/05 05:22:40;;;;;;;8.35;3.80;;;;;;;11.26;62.92;99109.53;4935204;29;20468;-71
2021/09/05 05:25:07;;;;;;;6.38;3.38;;;;;;;11.35;62.82;99109.75;4935332;29;20147;-71
2021/09/05 05:27:32;;;;;;;6.05;3.50;;;;;;;11.38;62.73;99115.50;4934911;29;20047;-71
2021/09/05 05:29:57;;;;;;;4.88;3.13;;;;;;;11.42;62.44;99118.47;4934572;29;20044;-72
2021/09/05 05:32:23;;;;;;;7.97;3.25;;;;;;;11.51;63.25;99127.75;4934497;29;20040;-72
2021/09/05 05:34:48;;;;;;;7.03;3.45;;;;;;;11.58;63.23;99127.44;4949252;29;20028;-71
2021/09/05 05:37:14;;;;;;;6.53;3.03;;;;;;;11.64;62.82;99125.44;4934765;29;20114;-71
2021/09/05 05:39:40;;;;;;;7.00;3.95;;;;;;;11.70;62.84;99132.53;4934458;29;20106;-72
2021/09/05 05:42:05;;;;;;;6.68;3.50;;;;;;;11.74;63.02;99137.19;4934510;29;20464;-72
2021/09/05 05:44:31;;;;;;;6.05;3.35;;;;;;;11.74;62.91;99139.13;4937496;29;20046;-72
2021/09/05 05:46:56;;;;;;;7.63;3.60;;;;;;;11.79;62.94;99143.75;4934188;29;20123;-71
2021/09/05 05:49:22;;;;;;;7.88;3.42;;;;;;;11.80;63.00;99137.16;4934740;28;20028;-72
2021/09/05 05:51:47;;;;;;;6.70;3.60;;;;;;;11.84;63.33;99140.94;4934647;29;20110;-72
2021/09/05 05:54:15;;;;;;;6.78;3.63;;;;;;;11.94;63.20;99137.31;4936190;29;20430;-73
2021/09/05 05:56:42;;;;;;;7.07;3.58;;;;;;;12.02;63.78;99137.53;4934227;29;20043;-72
2021/09/05 05:59:07;;;;;;;5.88;3.40;;;;;;;12.13;63.51;99138.25;4934139;29;20039;-72
2021/09/05 06:01:33;;;;;;;5.85;3.60;;;;;;;12.20;63.50;99149.72;4933692;29;20035;-72
2021/09/05 06:03:58;;;;;;;10.13;3.15;;;;;;;12.29;63.33;99146.34;4935257;29;20110;-72
2021/09/05 06:06:23;;;;;;;6.30;3.10;;;;;;;12.35;63.46;99147.94;4934031;29;20028;-71
2021/09/05 06:08:49;;;;;;;8.30;3.30;;;;;;;12.44;63.37;99148.94;4933723;29;20027;-72
2021/09/05 06:11:14;;;;;;;6.30;3.25;;;;;;;12.56;63.87;99155.97;4934234;29;20024;-71
2021/09/05 06:13:39;;;;;;;5.47;3.03;;;;;;;12.58;62.93;99157.34;4933782;29;20051;-72
2021/09/05 06:16:06;;;;;;;6.10;2.90;;;;;;;12.63;63.20;99162.75;4933693;29;20026;-71
2021/09/05 06:18:33;;;;;;;7.93;3.40;;;;;;;12.67;63.30;99165.75;4933889;29;20036;-71
2021/09/05 06:20:58;;;;;;;6.03;3.30;;;;;;;12.73;63.42;99156.31;4934079;29;20066;-72
2021/09/05 06:23:23;;;;;;;6.72;3.42;;;;;;;12.80;63.36;99162.31;4934251;29;20055;-72
2021/09/05 06:25:49;;;;;;;7.55;3.30;;;;;;;12.90;63.28;99172.38;4933549;29;20027;-72
2021/09/05 06:28:14;;;;;;;6.93;3.63;;;;;;;13.00;63.52;99171.41;4933767;29;20043;-71
2021/09/05 06:30:39;;;;;;;8.18;4.15;;;;;;;13.12;63.75;99164.66;4933768;29;20032;-71
2021/09/05 06:33:05;;;;;;;6.15;4.05;;;;;;;13.24;63.50;99167.81;4932931;29;20031;-72
2021/09/05 06:35:30;;;;;;;5.22;3.17;;;;;;;13.34;63.48;99181.41;4935077;29;20506;-71
2021/09/05 06:37:55;;;;;;;6.68;3.10;;;;;;;13.42;63.95;99168.13;4934417;29;20118;-71
2021/09/05 06:40:21;;;;;;;6.45;3.72;;;;;;;13.50;63.58;99170.22;4948496;28;20046;-72
2021/09/05 06:42:46;;;;;;;5.93;3.42;;;;;;;13.63;63.25;99171.41;4932892;29;20102;-72
2021/09/05 06:45:11;;;;;;;5.38;2.72;;;;;;;13.77;62.57;99160.44;4933262;29;20091;-71
2021/09/05 06:47:37;;;;;;;6.05;3.10;;;;;;;13.87;61.87;99178.75;4933094;29;20070;-71
2021/09/05 06:50:03;;;;;;;6.25;3.47;;;;;;;13.94;61.35;99171.75;4933332;29;20396;-72
2021/09/05 06:52:28;;;;;;;6.35;3.15;;;;;;;14.01;60.44;99173.28;4933005;29;20031;-72
2021/09/05 06:54:53;;;;;;;6.75;3.92;;;;;;;14.10;59.79;99183.31;4932975;29;20051;-72
2021/09/05 06:57:19;;;;;;;7.32;3.70;;;;;;;14.17;59.41;99185.69;4933263;29;20034;-72
2021/09/05 06:59:44;;;;;;;6.30;3.22;;;;;;;14.21;58.58;99195.00;4931405;29;20054;-72
2021/09/05 07:02:09;;;;;;;6.18;3.45;;;;;;;14.25;58.11;99195.22;4933120;29;20050;-72
2021/09/05 07:04:36;;;;;;;6.75;4.07;;;;;;;14.29;58.10;99205.34;4933343;29;20019;-71
2021/09/05 07:07:02;;;;;;;6.10;3.65;;;;;;;14.33;57.75;99202.78;4932987;29;20163;-72
2021/09/05 07:09:27;;;;;;;7.28;3.90;;;;;;;14.40;57.15;99199.66;4933162;29;20157;-71
2021/09/05 07:11:53;;;;;;;6.85;3.58;;;;;;;14.47;57.71;99204.78;4933279;29;20024;-72
2021/09/05 07:14:18;;;;;;;6.82;3.60;;;;;;;14.55;57.93;99207.63;4932991;29;20592;-71
2021/09/05 07:16:43;;;;;;;7.72;3.45;;;;;;;14.63;57.85;99213.59;4933313;29;20028;-71
2021/09/05 07:19:09;;;;;;;6.55;2.70;;;;;;;14.69;57.00;99218.72;4933834;29;20122;-72
2021/09/05 07:21:34;;;;;;;5.45;2.72;;;;;;;14.76;56.61;99215.59;4932400;29;20106;-72
2021/09/05 07:23:59;;;;;;;5.50;2.50;;;;;;;14.81;55.80;99226.53;4935445;28;20027;-71
2021/09/05 07:26:25;;;;;;;5.55;2.95;;;;;;;14.85;56.05;99229.50;4936870;29;20366;-72
2021/09/05 07:28:50;;;;;;;9.25;3.40;;;;;;;14.90;55.71;99223.88;4930257;29;20408;-72
2021/09/05 07:31:16;;;;;;;7.93;4.72;;;;;;;14.94;55.69;99237.88;4936050;29;20083;-71
2021/09/05 07:33:41;;;;;;;5.35;3.00;;;;;;;14.99;55.21;99237.78;4935295;29;20094;-71
2021/09/05 07:36:07;;;;;;;5.63;2.88;;;;;;;15.00;53.78;99242.19;4935075;29;20110;-71
2021/09/05 07:38:32;;;;;;;5.35;2.30;;;;;;;15.01;53.48;99246.56;4934916;29;20031;-71
2021/09/05 07:40:58;;;;;;;4.70;2.70;;;;;;;15.06;53.81;99246.47;4934658;29;20499;-70
2021/09/05 07:43:23;;;;;;;3.33;2.10;;;;;;;15.15;54.20;99249.34;4935534;29;20376;-71
2021/09/05 07:45:49;;;;;;;5.50;3.58;;;;;;;15.23;53.62;99254.16;4949909;29;20044;-70
2021/09/05 07:48:15;;;;;;;4.20;1.92;;;;;;;15.37;54.05;99256.09;4935038;29;20055;-72
2021/09/05 07:50:40;;;;;;;6.60;2.47;;;;;;;15.45;53.70;99256.19;4935239;29;20528;-72
2021/09/05 07:53:05;;;;;;;5.60;2.10;;;;;;;15.57;53.44;99257.59;4935276;29;20024;-71
2021/09/05 07:55:31;;;;;;;5.03;2.35;;;;;;;15.68;53.24;99264.56;4935115;29;20028;-72
2021/09/05 07:57:56;;;;;;;5.00;2.67;;;;;;;15.75;53.27;99264.91;4934189;29;20104;-72
2021/09/05 08:00:22;;;;;;;5.93;2.90;;;;;;;15.82;52.34;99266.44;4934804;29;20035;-73
2021/09/05 08:02:47;;;;;;;6.65;2.47;;;;;;;15.89;52.18;99273.22;4934612;29;20036;-72
2021/09/05 08:05:12;;;;;;;5.75;3.00;;;;;;;15.95;52.37;99279.44;4934443;29;20053;-71
2021/09/05 08:07:39;;;;;;;4.75;2.10;;;;;;;16.01;51.60;99275.44;4934784;29;20054;-72
2021/09/05 08:10:06;;;;;;;3.90;1.70;;;;;;;16.02;51.80;99276.25;4935076;29;20035;-72
2021/09/05 08:12:31;;;;;;;4.97;2.25;;;;;;;16.05;51.07;99270.91;4934274;29;20067;-70
2021/09/05 08:14:57;;;;;;;3.35;2.33;;;;;;;16.12;52.00;99283.47;4934675;29;20555;-70
2021/09/05 08:17:22;;;;;;;5.15;2.75;;;;;;;16.22;52.16;99284.06;4934918;29;20036;-71
2021/09/05 08:19:50;;;;;;;3.97;2.22;;;;;;;16.25;50.22;99292.88;4935040;29;20036;-71
2021/09/05 08:22:17;;;;;;;7.22;3.10;;;;;;;16.26;51.09;99280.69;4934409;29;20031;-71
2021/09/05 08:24:42;;;;;;;5.93;2.83;;;;;;;16.34;51.96;99283.50;4934986;29;20030;-71
2021/09/05 08:27:07;;;;;;;4.50;2.63;;;;;;;16.42;52.37;99292.19;4949449;29;20411;-70
2021/09/05 08:29:33;;;;;;;5.15;1.95;;;;;;;16.54;52.16;99289.66;4933407;29;20027;-71
2021/09/05 08:31:58;;;;;;;5.88;2.03;;;;;;;16.62;51.13;99294.44;4935576;29;20031;-70
2021/09/05 08:34:23;;;;;;;3.78;2.28;;;;;;;16.64;49.54;99294.94;4934806;28;20065;-71
2021/09/05 08:36:49;;;;;;;4.43;2.10;;;;;;;16.67;50.09;99304.59;4935985;29;20024;-71
2021/09/05 08:39:14;;;;;;;4.25;1.98;;;;;;;16.74;50.61;99298.59;4934579;29;20471;-71
2021/09/05 08:41:40;;;;;;;4.60;2.75;;;;;;;16.81;49.52;99302.53;4949168;29;20031;-71
2021/09/05 08:44:05;;;;;;;6.13;3.08;;;;;;;16.90;50.15;99301.75;4934376;29;20095;-70
2021/09/05 08:46:30;;;;;;;5.80;2.97;;;;;;;17.01;50.65;99302.31;4934868;29;20031;-71
2021/09/05 08:48:56;;;;;;;5.13;2.88;;;;;;;17.08;49.63;99297.97;4933838;29;20551;-71
2021/09/05 08:51:22;;;;;;;5.32;3.30;;;;;;;17.14;47.72;99300.59;4934636;29;20047;-71
2021/09/05 08:53:47;;;;;;;4.90;3.30;;;;;;;17.22;47.98;99311.72;4934155;29;20063;-70
2021/09/05 08:56:13;;;;;;;9.68;2.78;;;;;;;17.26;49.08;99306.34;4934246;29;20032;-71
2021/09/05 08:58:39;;;;;;;3.65;2.13;;;;;;;17.28;47.59;99301.31;4934004;29;20452;-71
2021/09/05 09:01:20;;;;;;;5.82;2.28;;;;;;;17.26;47.56;99309.97;4936431;29;20495;-71
2021/09/05 09:03:45;;;;;;;3.20;1.80;;;;;;;17.20;47.80;99305.69;4937370;29;20028;-70
2021/09/05 09:06:17;;;;;;;8.57;3.15;;;;;;;17.22;47.42;99300.66;4934364;29;20034;-70
2021/09/05 09:08:54;;;;;;;9.05;3.55;;;;;;;17.32;47.94;99295.97;4932473;29;20024;-71
2021/09/05 09:11:19;;;;;;;5.53;1.95;;;;;;;17.40;47.48;99304.28;4934390;29;20544;-70
2021/09/05 09:13:44;;;;;;;4.85;2.90;;;;;;;17.47;47.65;99305.78;4933905;29;20107;-70
2021/09/05 09:16:14;;;;;;;3.17;2.33;;;;;;;17.52;48.23;99306.44;4934712;29;20059;-70
2021/09/05 09:18:41;;;;;;;4.60;3.15;;;;;;;17.59;47.76;99303.19;4947203;29;20377;-70
2021/09/05 09:21:09;;;;;;;4.20;3.25;;;;;;;17.67;48.12;99307.16;4948068;29;20099;-71
2021/09/05 09:23:36;;;;;;;9.02;5.13;;;;;;;17.75;48.22;99305.53;4934197;29;20035;-70
2021/09/05 09:26:04;;;;;;;6.55;3.78;;;;;;;17.79;48.41;99309.28;4934176;29;20039;-71
2021/09/05 09:28:35;;;;;;;40.03;18.33;;;;;;;17.84;48.53;99309.13;4946681;29;20071;-70
2021/09/05 09:31:05;;;;;;;17.80;9.52;;;;;;;17.86;48.72;99315.97;4933109;29;20502;-70
2021/09/05 09:33:30;;;;;;;4.03;1.90;;;;;;;17.91;48.66;99317.78;4934004;29;20016;-70
2021/09/05 09:35:58;;;;;;;2.47;1.60;;;;;;;17.96;48.56;99308.47;4933763;29;20444;-70
2021/09/05 09:38:25;;;;;;;3.55;1.60;;;;;;;17.96;47.82;99306.50;4933380;29;21556;-69
2021/09/05 09:41:04;;;;;;;5.43;2.22;;;;;;;18.00;47.64;99312.28;4933561;29;20078;-70
2021/09/05 09:43:29;;;;;;;2.65;1.30;;;;;;;18.01;47.52;99319.47;4934209;29;20114;-69
2021/09/05 09:46:11;;;;;;;4.75;2.90;;;;;;;18.03;47.13;99311.63;4934108;29;20053;-70
2021/09/05 09:48:43;;;;;;;9.63;4.60;;;;;;;18.14;47.40;99320.44;4933354;29;20032;-70
2021/09/05 09:51:08;;;;;;;4.68;1.98;;;;;;;18.19;46.68;99311.97;4932890;29;20246;-71
2021/09/05 09:53:35;;;;;;;5.90;2.97;;;;;;;18.25;47.11;99316.22;4932865;29;20527;-71
2021/09/05 09:56:00;;;;;;;2.50;1.60;;;;;;;18.33;47.04;99309.00;4933478;29;20028;-70
2021/09/05 09:58:25;;;;;;;1.85;1.10;;;;;;;18.34;46.39;99307.06;4932930;29;20696;-70
2021/09/05 10:00:54;;;;;;;2.20;1.27;;;;;;;18.35;46.40;99308.66;4930374;29;20097;-71
2021/09/05 10:03:21;;;;;;;2.25;1.25;;;;;;;18.38;46.46;99306.06;4933118;29;20110;-70
2021/09/05 10:05:46;;;;;;;2.78;1.33;;;;;;;18.47;46.12;99302.47;4933340;29;20184;-71
2021/09/05 10:08:13;;;;;;;3.17;1.30;;;;;;;18.56;46.82;99303.25;4933264;29;20455;-71
2021/09/05 10:10:38;;;;;;;2.22;1.35;;;;;;;18.63;46.27;99300.00;4933228;29;20043;-71
2021/09/05 10:13:04;;;;;;;3.15;1.30;;;;;;;18.71;46.97;99304.72;4933342;29;20050;-69
2021/09/05 10:15:30;;;;;;;3.45;1.33;;;;;;;18.79;45.72;99303.06;4933090;29;20031;-70
2021/09/05 10:17:57;;;;;;;2.22;1.42;;;;;;;18.81;45.31;99309.91;4933439;29;20500;-70
2021/09/05 10:20:25;;;;;;;2.67;1.15;;;;;;;18.77;45.16;99302.56;4932236;29;20027;-69
2021/09/05 10:22:50;;;;;;;3.60;1.17;;;;;;;18.82;44.97;99299.63;4933194;29;20054;-70
2021/09/05 10:25:17;;;;;;;2.17;1.20;;;;;;;18.82;44.69;99307.97;4926185;29;20063;-69
2021/09/05 10:27:51;;;;;;;3.38;0.93;;;;;;;18.86;44.45;99314.50;4933173;29;20048;-70
2021/09/05 10:30:20;;;;;;;4.03;1.17;;;;;;;18.87;44.96;99307.78;4931524;29;20365;-69
2021/09/05 10:32:59;;;;;;;1.45;0.90;;;;;;;18.88;44.66;99298.31;4931766;29;20485;-70
2021/09/05 10:35:30;;;;;;;2.07;1.10;;;;;;;18.88;44.98;99304.66;4931983;29;20543;-70
2021/09/05 10:38:07;;;;;;;3.00;1.27;;;;;;;18.92;45.08;99301.22;4932996;29;20034;-70
2021/09/05 10:40:57;;;;;;;4.65;1.95;;;;;;;19.03;45.35;99305.31;4932663;29;20095;-70
2021/09/05 10:43:23;;;;;;;;;;;;;;;19.12;45.16;99310.84;4932206;29;20082;-68
2021/09/05 10:45:54;;;;;;;1.98;1.00;;;;;;;19.12;44.26;99299.72;4932613;29;20056;-68
2021/09/05 10:48:28;;;;;;;1.60;1.10;;;;;;;19.15;43.59;99310.19;4931936;29;20062;-68
2021/09/05 10:51:02;;;;;;;1.30;0.80;;;;;;;19.17;43.27;99302.31;4932768;29;20039;-70
2021/09/05 10:53:27;;;;;;;1.95;1.17;;;;;;;19.19;43.61;99305.59;4927075;29;20035;-70
2021/09/05 10:56:04;;;;;;;1.38;0.95;;;;;;;19.25;42.68;99314.53;4931557;29;20087;-71
2021/09/05 10:58:47;;;;;;;2.00;0.85;;;;;;;19.25;42.22;99311.75;4931282;29;20031;-70
2021/09/05 11:01:16;;;;;;;1.40;1.00;;;;;;;19.29;43.33;99313.56;4931565;29;20035;-70
2021/09/05 11:04:12;;;;;;;5.22;1.20;;;;;;;19.39;42.95;99306.81;4934038;29;20032;-71
2021/09/05 11:06:45;;;;;;;1.67;0.90;;;;;;;19.47;43.30;99305.13;4932023;29;20035;-69
2021/09/05 11:09:20;;;;;;;2.70;0.95;;;;;;;19.58;42.37;99305.53;4933293;29;20031;-70
2021/09/05 11:12:03;;;;;;;2.03;0.77;;;;;;;19.61;42.18;99302.91;4933895;29;20028;-70
2021/09/05 11:14:35;;;;;;;2.03;0.90;;;;;;;19.66;42.26;99299.13;4930054;29;20035;-70
2021/09/05 11:17:22;;;;;;;1.50;0.80;;;;;;;19.68;42.19;99307.94;4930541;29;20051;-71
2021/09/05 11:19:58;;;;;;;2.05;0.98;;;;;;;19.69;41.97;99304.00;4931985;29;20039;-70
2021/09/05 11:22:59;;;;;;;1.27;0.88;;;;;;;19.68;41.14;99305.16;4931682;29;20085;-70
2021/09/05 11:25:25;;;;;;;1.00;0.85;;;;;;;19.69;40.89;99301.22;4892189;29;20604;-70
2021/09/05 11:28:07;;;;;;;2.97;1.02;;;;;;;19.68;40.84;99299.59;4923626;29;20052;-72
2021/09/05 11:30:35;;;;;;;2.58;0.93;;;;;;;19.72;40.60;99308.09;4932258;29;20028;-70
2021/09/05 11:33:08;;;;;;;3.20;1.05;;;;;;;19.73;41.26;99309.72;4931391;29;20503;-71
2021/09/05 11:35:44;;;;;;;1.42;0.70;;;;;;;19.73;41.46;99299.41;4931353;29;20044;-70